Time;durP1;ratioP1;P1;durP2;ratioP2;P2;SDS_P1;SDS_P2;PMS_P1;PMS_P2;Temp;Humidity;BMP_temperature;BMP_pressure;BME280_temperature;BME280_humidity;BME280_pressure;Samples;Min_cycle;Max_cycle;Signal;HPM_P1;HPM_P2
2022/07/14 00:01:10;;;;;;;9.48;2.15;;;;;;;13.37;98.64;102302.44;5052782;28;20056;-75
2022/07/14 00:03:36;;;;;;;7.85;1.90;;;;;;;13.33;98.24;102303.59;5052873;28;20051;-75
2022/07/14 00:06:01;;;;;;;8.48;1.95;;;;;;;13.26;98.32;102303.25;5052662;28;20087;-75
2022/07/14 00:08:27;;;;;;;6.25;2.13;;;;;;;13.20;98.80;102301.06;5052274;28;20546;-75
2022/07/14 00:10:52;;;;;;;6.35;2.10;;;;;;;13.15;99.40;102304.09;5052187;28;20469;-75
2022/07/14 00:13:17;;;;;;;11.82;2.13;;;;;;;13.08;98.66;102305.56;5034464;28;20116;-75
2022/07/14 00:15:43;;;;;;;10.45;2.63;;;;;;;13.00;99.33;102303.47;5052372;28;20330;-75
2022/07/14 00:18:08;;;;;;;4.55;1.42;;;;;;;12.93;99.70;102302.25;5050788;28;20040;-75
2022/07/14 00:20:34;;;;;;;9.15;2.00;;;;;;;12.85;100.00;102301.97;5052468;28;20033;-75
2022/07/14 00:23:00;;;;;;;8.40;1.90;;;;;;;12.79;100.00;102308.63;5052114;28;20052;-75
2022/07/14 00:25:27;;;;;;;9.15;1.80;;;;;;;12.72;100.00;102302.09;5052556;28;20082;-75
2022/07/14 00:27:53;;;;;;;7.82;1.80;;;;;;;12.63;100.00;102292.97;5052460;28;20033;-75
2022/07/14 00:30:20;;;;;;;10.55;2.00;;;;;;;12.58;100.00;102299.59;5052262;28;20033;-75
2022/07/14 00:32:45;;;;;;;11.95;1.98;;;;;;;12.50;100.00;102295.69;5052288;28;20055;-75
2022/07/14 00:35:11;;;;;;;6.95;1.98;;;;;;;12.41;100.00;102295.56;5051984;28;20046;-75
2022/07/14 00:37:36;;;;;;;9.90;1.88;;;;;;;12.32;100.00;102297.94;5051942;28;20075;-75
2022/07/14 00:40:04;;;;;;;9.10;1.92;;;;;;;12.27;100.00;102294.78;5051889;28;20029;-76
2022/07/14 00:42:34;;;;;;;4.30;1.48;;;;;;;12.19;100.00;102306.97;5050981;28;20164;-75
2022/07/14 00:45:10;;;;;;;9.90;1.90;;;;;;;12.13;100.00;102302.94;5052280;28;20094;-76
2022/07/14 00:47:36;;;;;;;6.72;1.70;;;;;;;12.05;100.00;102305.34;5051970;28;20048;-76
2022/07/14 00:50:02;;;;;;;12.50;2.40;;;;;;;11.99;100.00;102298.63;5051639;28;20033;-75
2022/07/14 00:52:29;;;;;;;6.50;1.67;;;;;;;11.97;100.00;102297.88;5052489;28;20032;-76
2022/07/14 00:54:55;;;;;;;7.90;1.92;;;;;;;11.91;100.00;102300.97;5051993;28;20110;-76
2022/07/14 00:57:21;;;;;;;8.95;1.63;;;;;;;11.86;100.00;102303.97;5051848;28;20040;-76
2022/07/14 00:59:47;;;;;;;7.05;1.70;;;;;;;11.82;100.00;102310.47;5051181;28;20358;-75
2022/07/14 01:02:19;;;;;;;7.40;1.73;;;;;;;11.80;100.00;102307.09;5051512;28;20029;-76
2022/07/14 01:04:45;;;;;;;9.35;2.17;;;;;;;11.73;100.00;102309.31;5051712;28;20041;-75
2022/07/14 01:07:16;;;;;;;7.63;1.85;;;;;;;11.72;100.00;102309.44;5050065;28;20417;-75
2022/07/14 01:09:42;;;;;;;8.35;1.83;;;;;;;11.69;100.00;102304.34;5051427;28;20033;-75
2022/07/14 01:12:08;;;;;;;7.05;1.73;;;;;;;11.61;100.00;102304.88;5051291;28;20094;-75
2022/07/14 01:14:35;;;;;;;4.18;1.60;;;;;;;11.56;100.00;102320.38;5051425;28;20033;-77
2022/07/14 01:17:01;;;;;;;4.40;1.73;;;;;;;11.50;100.00;102311.00;5051309;28;20429;-77
2022/07/14 01:19:26;;;;;;;4.60;1.60;;;;;;;11.47;100.00;102306.72;5051086;28;20077;-77
2022/07/14 01:21:55;;;;;;;7.10;1.98;;;;;;;11.45;100.00;102305.16;5051436;28;20154;-77
2022/07/14 01:24:22;;;;;;;4.95;1.65;;;;;;;11.38;100.00;102306.53;5051248;28;20171;-77
2022/07/14 01:26:47;;;;;;;5.25;1.83;;;;;;;11.36;100.00;102304.00;5051308;28;20044;-77
2022/07/14 01:29:13;;;;;;;3.70;1.48;;;;;;;11.38;100.00;102306.53;5050897;28;20113;-77
2022/07/14 01:31:38;;;;;;;6.43;1.60;;;;;;;11.31;100.00;102302.59;5051180;28;20071;-77
2022/07/14 01:34:04;;;;;;;7.55;1.80;;;;;;;11.25;100.00;102303.88;5049285;28;20062;-77
2022/07/14 01:36:29;;;;;;;5.70;1.77;;;;;;;11.21;100.00;102300.59;5051222;28;20056;-77
2022/07/14 01:38:54;;;;;;;9.23;2.47;;;;;;;11.23;100.00;102305.81;5051060;28;20206;-77
2022/07/14 01:41:21;;;;;;;10.23;2.10;;;;;;;11.21;100.00;102307.72;5050902;28;20398;-75
2022/07/14 01:43:47;;;;;;;4.97;1.90;;;;;;;11.14;100.00;102303.75;5050869;28;20025;-75
2022/07/14 01:46:13;;;;;;;5.10;1.90;;;;;;;11.09;100.00;102304.97;5050581;28;20125;-75
2022/07/14 01:48:38;;;;;;;5.88;1.95;;;;;;;11.07;100.00;102303.34;5050539;28;20502;-75
2022/07/14 01:51:04;;;;;;;5.60;1.70;;;;;;;11.02;100.00;102300.16;5050440;28;20064;-77
2022/07/14 01:53:29;;;;;;;4.30;1.67;;;;;;;10.99;100.00;102301.22;5050420;28;20077;-75
2022/07/14 01:55:54;;;;;;;8.45;1.90;;;;;;;11.02;100.00;102305.50;5050517;28;20124;-75
2022/07/14 01:58:20;;;;;;;10.98;2.00;;;;;;;11.00;100.00;102299.41;5050452;28;20035;-78
2022/07/14 02:01:39;;;;;;;9.32;2.05;;;;;;;10.99;100.00;102297.69;5052049;28;20029;-77
2022/07/14 02:03:30;;;;;;;7.90;2.03;;;;;;;10.98;100.00;102294.19;5051786;28;20045;-78
2022/07/14 02:05:56;;;;;;;6.47;1.80;;;;;;;10.90;100.00;102294.72;5050324;28;20099;-78
2022/07/14 02:08:21;;;;;;;4.78;1.83;;;;;;;10.85;100.00;102296.88;5052089;28;20106;-78
2022/07/14 02:13:30;;;;;;;6.15;1.70;;;;;;;10.79;100.00;102281.28;5052060;28;20048;-78
2022/07/14 02:15:56;;;;;;;7.28;2.00;;;;;;;10.83;100.00;102288.09;5051932;28;20037;-78
2022/07/14 02:18:21;;;;;;;11.38;2.17;;;;;;;10.82;100.00;102283.72;5051470;28;20067;-78
2022/07/14 02:20:47;;;;;;;11.07;2.20;;;;;;;10.82;100.00;102275.75;5051732;28;20372;-78
2022/07/14 02:23:12;;;;;;;7.65;1.90;;;;;;;10.84;100.00;102278.28;5051333;28;20044;-77
2022/07/14 02:25:38;;;;;;;7.03;2.10;;;;;;;10.74;100.00;102275.44;5051200;28;20048;-78
2022/07/14 02:28:03;;;;;;;11.88;2.35;;;;;;;10.74;100.00;102270.09;5051224;28;20115;-77
2022/07/14 02:30:29;;;;;;;6.25;2.05;;;;;;;10.73;100.00;102276.38;5051253;28;20033;-76
2022/07/14 02:32:55;;;;;;;5.95;2.13;;;;;;;10.67;100.00;102274.13;5051476;28;20037;-77
2022/07/14 02:35:20;;;;;;;6.32;1.70;;;;;;;10.56;100.00;102273.06;5050209;28;20040;-77
2022/07/14 02:37:46;;;;;;;5.88;1.90;;;;;;;10.53;100.00;102275.94;5051314;28;20112;-77
2022/07/14 02:40:11;;;;;;;7.75;2.17;;;;;;;10.60;100.00;102271.06;5049805;28;20473;-76
2022/07/14 02:42:37;;;;;;;5.45;2.03;;;;;;;10.59;100.00;102280.84;5050065;28;20051;-77
2022/07/14 02:45:03;;;;;;;6.00;1.70;;;;;;;10.52;100.00;102284.03;5051187;28;20040;-78
2022/07/14 02:47:28;;;;;;;4.07;1.65;;;;;;;10.45;100.00;102280.94;5051248;28;20048;-77
2022/07/14 02:49:55;;;;;;;5.85;1.90;;;;;;;10.45;100.00;102280.06;5051038;28;20077;-77
2022/07/14 02:52:20;;;;;;;4.38;1.60;;;;;;;10.37;100.00;102273.44;5051081;28;20067;-77
2022/07/14 02:54:45;;;;;;;5.30;1.65;;;;;;;10.33;100.00;102281.69;5051057;28;20060;-77
2022/07/14 02:57:12;;;;;;;7.35;1.58;;;;;;;10.31;100.00;102283.63;5051252;28;20032;-77
2022/07/14 02:59:41;;;;;;;8.70;2.00;;;;;;;10.37;100.00;102278.75;5051053;28;20036;-77
2022/07/14 03:02:07;;;;;;;5.68;2.00;;;;;;;10.44;100.00;102281.03;5051324;28;20028;-77
2022/07/14 03:04:32;;;;;;;5.65;1.80;;;;;;;10.43;100.00;102284.66;5050045;28;20149;-78
2022/07/14 03:06:58;;;;;;;3.58;1.50;;;;;;;10.38;100.00;102277.81;5051441;28;20040;-78
2022/07/14 03:09:23;;;;;;;4.22;1.60;;;;;;;10.33;100.00;102284.34;5051132;28;20414;-77
2022/07/14 03:11:48;;;;;;;3.92;1.60;;;;;;;10.28;100.00;102275.84;5052769;28;20040;-78
2022/07/14 03:14:14;;;;;;;5.20;1.70;;;;;;;10.24;100.00;102278.72;5055696;28;20116;-76
2022/07/14 03:16:39;;;;;;;3.30;1.52;;;;;;;10.21;100.00;102273.59;5055505;28;20033;-77
2022/07/14 03:19:05;;;;;;;4.18;1.85;;;;;;;10.21;100.00;102275.38;5055328;28;20051;-77
2022/07/14 03:21:30;;;;;;;3.78;1.63;;;;;;;10.18;100.00;102281.78;5055352;28;20035;-77
2022/07/14 03:23:56;;;;;;;4.18;1.80;;;;;;;10.15;100.00;102268.69;5055427;28;20083;-77
2022/07/14 03:26:21;;;;;;;4.63;1.63;;;;;;;10.12;100.00;102271.56;5054977;28;20124;-77
2022/07/14 03:28:47;;;;;;;6.35;1.80;;;;;;;10.11;100.00;102263.69;5055428;28;20458;-77
2022/07/14 03:31:12;;;;;;;3.83;1.75;;;;;;;10.09;100.00;102268.22;5055352;28;20025;-77
2022/07/14 03:33:37;;;;;;;6.85;2.00;;;;;;;10.07;100.00;102265.66;5055706;28;20029;-77
2022/07/14 03:36:03;;;;;;;5.78;1.90;;;;;;;10.06;100.00;102261.28;5054911;28;20119;-77
2022/07/14 03:38:28;;;;;;;8.23;2.50;;;;;;;10.10;100.00;102249.50;5054587;28;20056;-77
2022/07/14 03:40:54;;;;;;;5.25;2.10;;;;;;;10.09;100.00;102253.13;5054967;28;20115;-77
2022/07/14 03:43:19;;;;;;;6.88;1.70;;;;;;;10.06;100.00;102248.00;5054496;28;20124;-77
2022/07/14 03:45:44;;;;;;;6.43;2.20;;;;;;;10.09;100.00;102249.59;5054980;28;20123;-76
2022/07/14 03:48:10;;;;;;;10.25;2.90;;;;;;;10.12;100.00;102255.59;5054737;28;20052;-77
2022/07/14 03:50:36;;;;;;;12.38;2.50;;;;;;;10.17;100.00;102260.59;5054463;28;20041;-77
2022/07/14 03:53:02;;;;;;;9.10;2.70;;;;;;;10.17;100.00;102264.09;5054550;28;20028;-77
2022/07/14 03:55:27;;;;;;;6.05;2.25;;;;;;;10.19;100.00;102267.50;5054174;28;20040;-76
2022/07/14 03:57:53;;;;;;;7.95;2.30;;;;;;;10.19;100.00;102259.53;5054368;28;20066;-77
2022/07/14 04:00:19;;;;;;;4.07;1.90;;;;;;;10.16;100.00;102258.88;5054148;28;20086;-77
2022/07/14 04:02:44;;;;;;;4.20;1.90;;;;;;;10.13;100.00;102264.41;5054622;28;20044;-77
2022/07/14 04:05:10;;;;;;;7.93;2.40;;;;;;;10.15;100.00;102249.19;5054128;28;20526;-77
2022/07/14 04:07:35;;;;;;;6.55;1.95;;;;;;;10.14;100.00;102245.69;5052768;28;20021;-76
2022/07/14 04:10:01;;;;;;;8.75;2.72;;;;;;;10.14;100.00;102248.34;5054223;28;20384;-77
2022/07/14 04:12:26;;;;;;;7.63;2.30;;;;;;;10.16;100.00;102253.56;5053091;28;20437;-77
2022/07/14 04:14:52;;;;;;;4.90;1.75;;;;;;;10.17;100.00;102256.13;5054276;28;20219;-75
2022/07/14 04:17:17;;;;;;;6.60;1.70;;;;;;;10.17;100.00;102257.94;5054450;28;20021;-77
2022/07/14 04:19:42;;;;;;;6.47;2.40;;;;;;;10.23;100.00;102258.38;5054746;28;20063;-78
2022/07/14 04:22:08;;;;;;;4.55;1.80;;;;;;;10.27;100.00;102252.84;5053709;28;20090;-77
2022/07/14 04:24:33;;;;;;;5.68;1.63;;;;;;;10.26;100.00;102245.84;5052802;28;20458;-77
2022/07/14 04:26:58;;;;;;;5.13;1.95;;;;;;;10.27;100.00;102245.75;5054141;28;20343;-77
2022/07/14 04:29:23;;;;;;;5.03;2.03;;;;;;;10.31;100.00;102241.06;5054145;28;20037;-76
2022/07/14 04:31:49;;;;;;;9.02;2.35;;;;;;;10.36;100.00;102247.81;5054873;28;20066;-77
2022/07/14 04:34:14;;;;;;;3.83;1.73;;;;;;;10.38;100.00;102253.03;5053917;28;20029;-78
2022/07/14 04:36:39;;;;;;;3.63;1.88;;;;;;;10.41;100.00;102247.50;5054318;28;20116;-77
2022/07/14 04:39:06;;;;;;;6.65;2.30;;;;;;;10.47;100.00;102244.41;5053938;28;20071;-77
2022/07/14 04:41:35;;;;;;;5.78;1.90;;;;;;;10.53;100.00;102244.00;5054199;28;20040;-77
2022/07/14 04:44:00;;;;;;;7.40;2.25;;;;;;;10.56;100.00;102243.78;5053744;28;20040;-77
2022/07/14 04:46:25;;;;;;;4.72;1.92;;;;;;;10.63;100.00;102240.69;5053340;28;20045;-76
2022/07/14 04:54:18;;;;;;;6.03;1.90;;;;;;;10.78;100.00;102245.00;5053848;28;20460;-77
2022/07/14 04:56:44;;;;;;;10.05;2.90;;;;;;;10.86;100.00;102244.44;5053293;28;20037;-77
2022/07/14 04:59:09;;;;;;;7.32;2.20;;;;;;;10.94;100.00;102250.94;5053455;28;20051;-77
2022/07/14 05:01:34;;;;;;;6.97;2.35;;;;;;;11.02;100.00;102249.56;5053127;28;20043;-77
2022/07/14 05:04:00;;;;;;;6.68;2.45;;;;;;;11.07;100.00;102250.94;5053159;28;20036;-77
2022/07/14 05:06:25;;;;;;;8.73;2.67;;;;;;;11.15;100.00;102255.75;5052894;28;20116;-77
2022/07/14 05:08:50;;;;;;;4.57;2.28;;;;;;;11.22;100.00;102259.66;5053229;28;20476;-77
2022/07/14 05:11:16;;;;;;;3.90;2.17;;;;;;;11.27;100.00;102257.53;5053445;28;20385;-79
2022/07/14 05:13:42;;;;;;;6.88;2.75;;;;;;;11.40;100.00;102264.63;5053580;28;20315;-78
2022/07/14 05:16:07;;;;;;;9.40;2.90;;;;;;;11.50;100.00;102263.03;5051485;28;20154;-78
2022/07/14 05:18:33;;;;;;;8.27;2.78;;;;;;;11.60;100.00;102264.06;5052247;28;20029;-76
2022/07/14 05:20:58;;;;;;;8.93;3.08;;;;;;;11.75;100.00;102264.75;5052216;28;20518;-78
2022/07/14 05:23:23;;;;;;;8.60;3.17;;;;;;;12.01;100.00;102267.34;5053149;28;20040;-78
2022/07/14 05:25:49;;;;;;;6.55;2.83;;;;;;;12.37;100.00;102264.72;5051751;28;20060;-78
2022/07/14 05:28:15;;;;;;;9.50;2.97;;;;;;;12.70;100.00;102267.50;5053427;28;20060;-79
2022/07/14 05:30:40;;;;;;;9.20;2.60;;;;;;;12.98;100.00;102265.31;5052839;28;20457;-78
2022/07/14 05:33:06;;;;;;;5.43;2.30;;;;;;;13.22;100.00;102265.22;5051877;28;20456;-76
2022/07/14 05:35:31;;;;;;;11.85;2.42;;;;;;;13.38;100.00;102272.91;5053261;28;20450;-76
2022/07/14 05:37:56;;;;;;;7.47;2.10;;;;;;;13.48;100.00;102270.34;5052268;28;20129;-78
2022/07/14 05:40:22;;;;;;;7.82;2.13;;;;;;;13.50;100.00;102283.59;5053416;28;20057;-76
2022/07/14 05:42:47;;;;;;;8.25;3.22;;;;;;;13.47;100.00;102283.84;5053617;28;20338;-85
2022/07/14 05:45:12;;;;;;;18.10;8.45;;;;;;;13.39;100.00;102277.28;5036088;28;20104;-79
2022/07/14 05:47:41;;;;;;;17.65;5.85;;;;;;;13.35;100.00;102278.50;5053703;28;20057;-79
2022/07/14 05:50:07;;;;;;;8.60;2.80;;;;;;;13.35;100.00;102277.66;5053193;28;20120;-85
2022/07/14 05:52:33;;;;;;;9.40;2.20;;;;;;;13.38;100.00;102275.56;5053479;28;20063;-78
2022/07/14 05:54:59;;;;;;;8.10;2.38;;;;;;;13.44;100.00;102286.78;5035288;28;20461;-79
2022/07/14 05:57:25;;;;;;;8.02;2.28;;;;;;;13.53;100.00;102278.84;5053262;28;20043;-79
2022/07/14 05:59:50;;;;;;;13.55;2.25;;;;;;;13.65;100.00;102274.31;5053086;28;20033;-80
2022/07/14 06:02:15;;;;;;;10.07;2.45;;;;;;;13.75;100.00;102271.78;5052321;28;20041;-80
2022/07/14 06:04:41;;;;;;;10.55;2.00;;;;;;;13.89;100.00;102275.97;5052602;28;20085;-78
2022/07/14 06:07:08;;;;;;;9.75;2.53;;;;;;;14.05;100.00;102272.91;5053288;28;20041;-83
2022/07/14 06:09:37;;;;;;;7.65;2.00;;;;;;;14.20;100.00;102274.28;5052962;28;20048;-78
2022/07/14 06:12:05;;;;;;;10.40;3.15;;;;;;;14.44;100.00;102275.91;5052885;28;20075;-77
2022/07/14 06:14:31;;;;;;;6.40;2.25;;;;;;;14.60;97.08;102272.75;5052976;28;20032;-77
2022/07/14 06:16:57;;;;;;;6.57;2.10;;;;;;;14.85;98.14;102265.31;5053219;28;20033;-77
2022/07/14 06:19:22;;;;;;;8.68;1.92;;;;;;;15.05;95.51;102261.78;5052710;28;20035;-77
2022/07/14 06:21:47;;;;;;;6.45;2.00;;;;;;;15.27;94.31;102262.56;5052755;28;20053;-77
2022/07/14 06:24:13;;;;;;;10.35;2.13;;;;;;;15.44;92.24;102256.56;5052577;28;20457;-77
2022/07/14 06:26:38;;;;;;;7.05;1.70;;;;;;;15.62;89.79;102258.59;5052516;28;20037;-77
2022/07/14 06:29:04;;;;;;;9.27;1.70;;;;;;;15.75;89.60;102248.44;5052535;28;20086;-77
2022/07/14 06:31:33;;;;;;;9.27;1.80;;;;;;;15.80;85.91;102251.56;5052469;28;20037;-77
2022/07/14 06:33:59;;;;;;;15.02;2.15;;;;;;;15.96;87.99;102237.63;5053126;28;20029;-77
2022/07/14 06:36:24;;;;;;;6.53;1.40;;;;;;;16.14;86.52;102236.91;5052315;28;20037;-77
2022/07/14 06:38:49;;;;;;;4.85;1.27;;;;;;;16.20;83.67;102226.44;5052445;28;20033;-77
2022/07/14 06:41:15;;;;;;;9.60;1.95;;;;;;;16.28;83.49;102230.25;5052443;28;20028;-77
2022/07/14 06:43:40;;;;;;;7.70;1.80;;;;;;;16.37;83.90;102226.72;5051116;28;20132;-76
2022/07/14 06:46:07;;;;;;;6.28;2.22;;;;;;;16.44;82.84;102217.09;5051355;28;20053;-77
2022/07/14 06:48:32;;;;;;;7.60;2.17;;;;;;;16.55;83.76;102219.59;5052922;28;20036;-77
2022/07/14 06:51:04;;;;;;;4.25;1.45;;;;;;;16.80;81.54;102227.19;5034667;28;20397;-77
2022/07/14 06:53:29;;;;;;;10.18;1.83;;;;;;;16.99;80.62;102223.59;5052052;28;20032;-77
2022/07/14 06:55:54;;;;;;;7.93;1.80;;;;;;;17.10;76.86;102229.63;5034799;28;20029;-77
2022/07/14 06:58:20;;;;;;;9.75;2.05;;;;;;;17.11;76.59;102219.75;5052375;28;20112;-78
2022/07/14 07:00:45;;;;;;;8.40;1.73;;;;;;;17.18;76.40;102215.47;5052294;28;20167;-77
2022/07/14 07:03:11;;;;;;;13.77;1.73;;;;;;;17.27;73.95;102213.69;5051288;28;20135;-77
2022/07/14 07:08:23;;;;;;;8.20;1.48;;;;;;;17.42;74.27;102219.41;5052597;28;20044;-76
2022/07/14 07:10:49;;;;;;;5.60;1.77;;;;;;;17.61;73.98;102211.22;5051994;28;20079;-77
2022/07/14 07:13:14;;;;;;;4.93;1.40;;;;;;;17.72;73.57;102207.47;5052692;28;20202;-78
2022/07/14 07:15:40;;;;;;;5.65;1.38;;;;;;;17.89;74.04;102216.59;5051764;28;20485;-78
2022/07/14 07:18:06;;;;;;;10.57;1.90;;;;;;;18.02;70.37;102216.22;5051925;28;20036;-77
2022/07/14 07:20:35;;;;;;;11.43;1.92;;;;;;;18.19;68.55;102210.97;5052141;28;20033;-77
2022/07/14 07:23:02;;;;;;;9.18;1.88;;;;;;;18.42;69.41;102219.38;5051940;28;20061;-77
2022/07/14 07:25:28;;;;;;;6.68;1.30;;;;;;;18.70;67.52;102220.06;5051947;28;20035;-77
2022/07/14 07:27:54;;;;;;;10.07;1.77;;;;;;;18.88;65.90;102222.72;5051899;28;20424;-76
2022/07/14 07:30:19;;;;;;;5.90;1.63;;;;;;;18.89;62.09;102224.41;5052101;28;20044;-78
2022/07/14 07:32:46;;;;;;;4.70;1.85;;;;;;;19.04;62.61;102230.06;5051831;28;20428;-78
2022/07/14 07:35:12;;;;;;;5.25;2.10;;;;;;;19.18;61.66;102225.88;5051775;28;20052;-78
2022/07/14 07:37:37;;;;;;;6.93;1.60;;;;;;;19.28;60.94;102220.38;5051482;28;20463;-78
2022/07/14 07:40:03;;;;;;;6.53;1.65;;;;;;;19.34;60.29;102228.66;5050913;28;20087;-77
2022/07/14 07:42:29;;;;;;;5.13;1.65;;;;;;;19.31;59.67;102239.78;5050394;28;20037;-78
2022/07/14 07:44:55;;;;;;;11.02;1.67;;;;;;;19.39;60.26;102252.44;5051655;28;20051;-77
2022/07/14 07:47:21;;;;;;;4.38;1.27;;;;;;;19.34;60.99;102242.13;5051579;28;20381;-77
2022/07/14 07:49:47;;;;;;;5.80;1.38;;;;;;;19.37;60.64;102240.97;5051543;28;20037;-77
2022/07/14 07:52:12;;;;;;;8.15;1.50;;;;;;;19.46;59.69;102242.69;5050004;28;20534;-77
2022/07/14 07:54:38;;;;;;;5.00;1.33;;;;;;;19.48;57.85;102239.81;5051979;28;20037;-77
2022/07/14 07:57:03;;;;;;;5.30;1.60;;;;;;;19.57;60.88;102241.53;5051768;28;20040;-77
2022/07/14 07:59:29;;;;;;;5.88;1.67;;;;;;;19.62;61.39;102235.66;5055082;28;20029;-77
2022/07/14 08:01:54;;;;;;;4.90;1.58;;;;;;;19.81;61.21;102238.09;5055363;28;20037;-77
2022/07/14 08:04:19;;;;;;;4.32;1.30;;;;;;;20.05;58.52;102234.56;5055129;28;20037;-78
2022/07/14 08:06:46;;;;;;;3.83;1.27;;;;;;;20.20;57.70;102231.22;5055099;28;20456;-77
2022/07/14 08:09:12;;;;;;;5.28;1.38;;;;;;;20.38;56.44;102229.16;5054966;28;20083;-77
2022/07/14 08:11:39;;;;;;;4.47;1.25;;;;;;;20.43;55.43;102217.81;5055681;28;20381;-77
2022/07/14 08:14:05;;;;;;;5.72;1.52;;;;;;;20.65;57.36;102215.44;5055044;28;20033;-79
2022/07/14 08:16:30;;;;;;;4.10;1.20;;;;;;;20.85;57.09;102216.75;5054853;28;20052;-78
2022/07/14 08:18:55;;;;;;;6.10;1.10;;;;;;;21.06;55.20;102210.75;5054978;28;20120;-78
2022/07/14 08:21:21;;;;;;;4.43;1.42;;;;;;;21.24;55.49;102213.22;5054994;28;20037;-78
2022/07/14 08:23:46;;;;;;;6.18;1.70;;;;;;;21.45;52.92;102211.75;5053741;28;20366;-78
2022/07/14 08:26:11;;;;;;;6.72;1.60;;;;;;;21.45;53.46;102212.59;5054544;28;20544;-77
2022/07/14 08:28:37;;;;;;;7.55;1.92;;;;;;;21.55;54.76;102209.69;5054593;28;20481;-79
2022/07/14 08:31:02;;;;;;;3.55;1.42;;;;;;;21.63;49.87;102209.66;5054829;28;20458;-78
2022/07/14 08:33:27;;;;;;;4.50;1.30;;;;;;;21.61;50.65;102213.56;5053123;28;20051;-79
2022/07/14 08:35:53;;;;;;;5.63;1.60;;;;;;;21.82;53.21;102210.19;5055379;28;20082;-78
2022/07/14 08:38:18;;;;;;;4.90;1.40;;;;;;;22.03;50.28;102201.38;5054917;28;20059;-78
2022/07/14 08:40:44;;;;;;;6.35;1.60;;;;;;;22.25;48.12;102209.69;5055095;28;20072;-79
2022/07/14 08:43:11;;;;;;;7.43;2.05;;;;;;;22.63;49.53;102217.78;5054855;28;20040;-79
2022/07/14 08:45:41;;;;;;;5.90;1.67;;;;;;;23.04;47.90;102207.31;5054324;28;20469;-78
2022/07/14 08:48:07;;;;;;;6.38;1.50;;;;;;;23.28;47.83;102204.50;5054635;28;20048;-79
2022/07/14 08:50:33;;;;;;;7.18;1.63;;;;;;;23.55;48.12;102202.94;5055256;28;20484;-78
2022/07/14 08:53:03;;;;;;;9.93;1.35;;;;;;;23.53;45.69;102207.72;5054371;28;20132;-80
2022/07/14 08:55:29;;;;;;;13.52;1.60;;;;;;;23.94;45.64;102198.94;5053583;28;20056;-77
2022/07/14 08:57:55;;;;;;;7.32;1.60;;;;;;;24.42;44.18;102192.84;5054433;28;20056;-79
2022/07/14 09:00:20;;;;;;;5.75;1.80;;;;;;;24.90;44.64;102187.50;5054111;28;20029;-80
2022/07/14 09:02:51;;;;;;;7.93;1.58;;;;;;;25.16;43.74;102185.94;5054305;28;20432;-81
2022/07/14 09:05:17;;;;;;;;;;;;;;;25.69;43.04;102193.41;5054412;28;20037;-78
2022/07/14 09:07:43;;;;;;;5.95;1.42;;;;;;;26.52;40.94;102193.00;5054618;28;20383;-79
2022/07/14 09:10:11;;;;;;;5.88;1.70;;;;;;;26.99;39.20;102202.97;5052093;28;20418;-78
2022/07/14 09:12:37;;;;;;;5.35;1.50;;;;;;;26.64;40.71;102203.28;5053655;28;20105;-80
2022/07/14 09:17:50;;;;;;;14.82;1.38;;;;;;;25.87;42.75;102209.16;5054713;28;20112;-80
2022/07/14 09:20:16;;;;;;;5.32;1.50;;;;;;;25.93;41.97;102200.16;5053986;28;20048;-79
2022/07/14 09:22:43;;;;;;;10.40;1.83;;;;;;;25.79;42.97;102207.47;5054311;28;20465;-79
2022/07/14 09:25:19;;;;;;;6.85;1.70;;;;;;;25.93;44.08;102205.63;5052484;28;20067;-78
2022/07/14 09:27:46;;;;;;;9.93;1.50;;;;;;;27.06;41.90;102203.78;5053894;28;20033;-80
2022/07/14 09:30:12;;;;;;;9.77;1.92;;;;;;;27.28;40.04;102196.94;5053638;28;20033;-78
2022/07/14 09:32:56;;;;;;;10.98;1.77;;;;;;;28.43;38.89;102205.19;5053015;28;20036;-77
2022/07/14 09:35:42;;;;;;;6.88;1.60;;;;;;;30.02;35.78;102201.47;5054185;28;20357;-77
2022/07/14 09:38:19;;;;;;;7.57;1.40;;;;;;;30.50;34.18;102198.72;5053058;28;20045;-78
2022/07/14 09:40:48;;;;;;;5.75;1.85;;;;;;;30.97;33.25;102192.31;5053915;28;20036;-78
2022/07/14 09:43:14;;;;;;;7.25;1.50;;;;;;;30.76;34.47;102197.38;5053417;28;20057;-78
2022/07/14 09:45:43;;;;;;;9.15;1.90;;;;;;;31.00;33.10;102186.34;5053375;28;20040;-79
2022/07/14 09:48:11;;;;;;;9.05;1.40;;;;;;;30.95;32.67;102189.81;5053773;28;20029;-77
2022/07/14 09:50:48;;;;;;;5.22;1.45;;;;;;;30.66;33.08;102195.22;5053294;28;20028;-77
2022/07/14 09:53:25;;;;;;;7.95;1.65;;;;;;;30.51;33.70;102192.16;5053584;28;20048;-78
2022/07/14 09:55:56;;;;;;;5.20;1.20;;;;;;;29.87;35.04;102198.31;5053392;28;20104;-78
2022/07/14 09:58:25;;;;;;;7.65;1.83;;;;;;;30.31;33.64;102200.75;5053221;28;20029;-77
2022/07/14 10:00:59;;;;;;;5.38;1.60;;;;;;;30.48;33.47;102209.13;5053193;28;20061;-78
2022/07/14 10:03:28;;;;;;;5.03;1.50;;;;;;;30.15;33.09;102197.63;5053516;28;20044;-78
2022/07/14 10:05:56;;;;;;;7.15;1.58;;;;;;;30.05;33.50;102211.09;5053240;28;20480;-77
2022/07/14 10:08:24;;;;;;;8.65;1.55;;;;;;;30.11;32.77;102207.41;5053114;28;20029;-78
2022/07/14 10:10:51;;;;;;;9.38;1.67;;;;;;;30.50;32.31;102202.31;5053084;28;20466;-78
2022/07/14 10:13:19;;;;;;;3.63;0.90;;;;;;;30.72;33.45;102213.50;5053348;28;20021;-78
2022/07/14 10:15:46;;;;;;;6.15;1.42;;;;;;;31.14;31.70;102211.63;5053542;28;20029;-78
2022/07/14 10:18:12;;;;;;;4.18;1.20;;;;;;;30.63;32.58;102212.19;5051571;28;20507;-79
2022/07/14 10:20:38;;;;;;;3.42;1.23;;;;;;;29.86;33.00;102205.72;5052317;28;20037;-78
2022/07/14 10:23:05;;;;;;;3.63;1.15;;;;;;;29.96;33.66;102207.03;5052286;28;20127;-79
2022/07/14 10:25:31;;;;;;;5.90;1.40;;;;;;;28.96;34.78;102212.84;5052525;28;20033;-78
2022/07/14 10:27:57;;;;;;;2.33;1.30;;;;;;;28.27;36.01;102206.59;5052831;28;20033;-79
2022/07/14 10:30:42;;;;;;;5.28;1.50;;;;;;;28.11;36.80;102206.13;5052498;28;20552;-78
2022/07/14 10:33:17;;;;;;;4.20;1.15;;;;;;;29.06;34.93;102206.00;5052620;28;20032;-77
2022/07/14 10:36:01;;;;;;;7.07;1.20;;;;;;;29.79;33.66;102207.69;5051824;28;20060;-77
2022/07/14 10:38:48;;;;;;;4.47;0.98;;;;;;;29.86;33.39;102200.25;5052831;28;20055;-79
2022/07/14 10:41:47;;;;;;;2.92;1.17;;;;;;;29.34;32.34;102210.91;5052681;28;20032;-79
2022/07/14 10:44:21;;;;;;;3.65;1.10;;;;;;;28.46;35.07;102212.97;5052376;28;20025;-81
2022/07/14 10:46:49;;;;;;;4.82;1.42;;;;;;;28.07;35.32;102217.75;5052488;28;20187;-79
2022/07/14 10:49:16;;;;;;;4.55;1.25;;;;;;;27.69;35.31;102211.25;5050920;28;20192;-79
2022/07/14 10:51:52;;;;;;;3.13;1.30;;;;;;;27.54;36.04;102203.34;5051084;28;20366;-80
2022/07/14 10:54:29;;;;;;;4.50;1.27;;;;;;;27.61;36.75;102214.25;5050900;28;20025;-79
2022/07/14 10:57:09;;;;;;;2.75;1.23;;;;;;;27.65;35.75;102206.44;5052235;28;20037;-79
2022/07/14 10:59:37;;;;;;;6.03;1.25;;;;;;;28.00;35.96;102211.47;5051429;28;20128;-80
2022/07/14 11:02:12;;;;;;;3.10;1.00;;;;;;;28.22;34.95;102207.28;5052387;28;20107;-80
2022/07/14 11:05:04;;;;;;;4.82;1.02;;;;;;;28.41;35.05;102210.91;5052513;28;20025;-81
2022/07/14 11:07:47;;;;;;;4.47;1.10;;;;;;;29.01;34.41;102213.00;5051702;28;20016;-82
2022/07/14 11:10:19;;;;;;;4.95;1.20;;;;;;;29.52;32.62;102204.53;5052356;28;20032;-84
2022/07/14 11:12:59;;;;;;;2.38;1.05;;;;;;;29.49;31.63;102210.50;5051923;28;20032;-69
2022/07/14 11:15:50;;;;;;;3.95;1.30;;;;;;;29.48;32.27;102208.81;5051839;28;20033;-74
2022/07/14 11:18:21;;;;;;;4.50;1.40;;;;;;;29.23;31.29;102204.31;5051371;28;20038;-76
2022/07/14 11:20:58;;;;;;;4.80;1.20;;;;;;;29.79;32.22;102213.19;5051731;28;20063;-75
2022/07/14 11:23:27;;;;;;;5.93;1.40;;;;;;;30.31;30.84;102219.97;5051832;28;20052;-74
2022/07/14 11:25:54;;;;;;;4.82;1.70;;;;;;;31.26;28.29;102209.66;5051972;28;20025;-77
2022/07/14 11:28:32;;;;;;;3.22;1.10;;;;;;;31.58;28.85;102212.75;5050787;28;20033;-75
2022/07/14 11:31:15;;;;;;;2.60;0.88;;;;;;;31.41;28.23;102223.72;5051954;28;20168;-75
2022/07/14 11:36:30;;;;;;;2.53;0.88;;;;;;;30.48;29.38;102220.09;5033498;28;20045;-79